HIG weather

Higginsville Industrial Municipal Airport
Higginsville, Missouri, United States

Public forecast

Using degrees Fahrenheit for public forecast. Weather courtesy of forecast.io.

METAR (pilot weather report)

Closest report is Skyhaven Airport, 18.3 nm (33.9 km) SSW. Retrieved 2019/08/23 23:35 UTC (0 seconds ago):

KRCM 232335Z AUTO 05008KT 10SM CLR 26/18 A3003 RMK AO2

TAF (pilot weather forecast)

Closest forecast is Whiteman Air Force Base, 21.4 nm (39.7 km) SSE. Retrieved 2019/08/23 19:06 UTC (4 hours ago):

TAF TAF KSZL 231900Z 2319/2501 09009KT 9999 BKN030 QNH3001INS BECMG 2402/2403 10006KT 9999 SCT030 BKN080 QNH3005INS BECMG 2411/2412 09006KT 9999 BKN030 QNH3007INS BECMG 2414/2415 09012G18KT 9999 BKN030 QNH3000INS TX29/2320Z TN20/2411Z